sensor_id;sensor_type;location;lat;lon;timestamp;temperature;humidity
25914;DHT22;13718;50.922;5.346;2023-03-03T00:00:48;2.60;99.90
25914;DHT22;13718;50.922;5.346;2023-03-03T00:03:15;2.50;99.90
25914;DHT22;13718;50.922;5.346;2023-03-03T00:05:41;2.50;99.90
25914;DHT22;13718;50.922;5.346;2023-03-03T00:08:07;2.40;99.90
25914;DHT22;13718;50.922;5.346;2023-03-03T00:10:33;2.30;99.90
25914;DHT22;13718;50.922;5.346;2023-03-03T00:12:58;2.20;99.90
25914;DHT22;13718;50.922;5.346;2023-03-03T00:15:24;2.30;99.90
25914;DHT22;13718;50.922;5.346;2023-03-03T00:17:51;2.30;99.90
25914;DHT22;13718;50.922;5.346;2023-03-03T00:22:51;2.20;99.90
25914;DHT22;13718;50.922;5.346;2023-03-03T00:25:35;2.30;99.90
25914;DHT22;13718;50.922;5.346;2023-03-03T00:28:06;2.30;99.90
25914;DHT22;13718;50.922;5.346;2023-03-03T00:30:32;2.20;99.90
25914;DHT22;13718;50.922;5.346;2023-03-03T00:32:57;2.20;99.90
25914;DHT22;13718;50.922;5.346;2023-03-03T00:35:30;2.10;99.90
25914;DHT22;13718;50.922;5.346;2023-03-03T00:38:00;2.10;99.90
25914;DHT22;13718;50.922;5.346;2023-03-03T00:40:30;2.10;99.90
25914;DHT22;13718;50.922;5.346;2023-03-03T00:42:58;2.10;99.90
25914;DHT22;13718;50.922;5.346;2023-03-03T00:45:38;2.00;99.90
25914;DHT22;13718;50.922;5.346;2023-03-03T00:48:10;2.00;99.90
25914;DHT22;13718;50.922;5.346;2023-03-03T00:50:40;1.90;99.90
25914;DHT22;13718;50.922;5.346;2023-03-03T00:53:11;1.90;99.90
25914;DHT22;13718;50.922;5.346;2023-03-03T00:55:37;1.90;99.90
25914;DHT22;13718;50.922;5.346;2023-03-03T00:58:05;1.90;99.90
25914;DHT22;13718;50.922;5.346;2023-03-03T01:00:30;1.90;99.90
25914;DHT22;13718;50.922;5.346;2023-03-03T01:02:56;1.90;99.90
25914;DHT22;13718;50.922;5.346;2023-03-03T01:05:23;1.80;99.90
25914;DHT22;13718;50.922;5.346;2023-03-03T01:07:48;1.80;99.90
25914;DHT22;13718;50.922;5.346;2023-03-03T01:10:14;1.80;99.90
25914;DHT22;13718;50.922;5.346;2023-03-03T01:12:39;1.80;99.90
25914;DHT22;13718;50.922;5.346;2023-03-03T01:15:06;1.80;99.90
25914;DHT22;13718;50.922;5.346;2023-03-03T01:17:32;1.80;99.90
25914;DHT22;13718;50.922;5.346;2023-03-03T01:19:59;1.80;99.90
25914;DHT22;13718;50.922;5.346;2023-03-03T01:22:24;1.80;99.90
25914;DHT22;13718;50.922;5.346;2023-03-03T01:24:50;1.90;99.90
25914;DHT22;13718;50.922;5.346;2023-03-03T01:27:15;1.90;99.90
25914;DHT22;13718;50.922;5.346;2023-03-03T01:29:41;1.90;99.90
25914;DHT22;13718;50.922;5.346;2023-03-03T01:32:06;2.10;99.90
25914;DHT22;13718;50.922;5.346;2023-03-03T01:34:32;2.10;99.90
25914;DHT22;13718;50.922;5.346;2023-03-03T01:36:58;2.00;99.90
25914;DHT22;13718;50.922;5.346;2023-03-03T01:39:25;2.10;99.90
25914;DHT22;13718;50.922;5.346;2023-03-03T01:41:51;2.20;99.90
25914;DHT22;13718;50.922;5.346;2023-03-03T01:44:16;2.30;99.90
25914;DHT22;13718;50.922;5.346;2023-03-03T01:49:18;2.40;99.90
25914;DHT22;13718;50.922;5.346;2023-03-03T01:51:49;2.60;99.90
25914;DHT22;13718;50.922;5.346;2023-03-03T01:54:21;2.50;99.90
25914;DHT22;13718;50.922;5.346;2023-03-03T01:56:49;2.60;99.90
25914;DHT22;13718;50.922;5.346;2023-03-03T01:59:25;2.50;99.90
25914;DHT22;13718;50.922;5.346;2023-03-03T02:01:52;2.40;99.90
25914;DHT22;13718;50.922;5.346;2023-03-03T02:04:17;2.60;99.90
25914;DHT22;13718;50.922;5.346;2023-03-03T02:06:45;2.40;99.90
25914;DHT22;13718;50.922;5.346;2023-03-03T02:11:43;2.30;99.90
25914;DHT22;13718;50.922;5.346;2023-03-03T02:14:10;2.70;99.90
25914;DHT22;13718;50.922;5.346;2023-03-03T02:16:36;2.70;99.90
25914;DHT22;13718;50.922;5.346;2023-03-03T02:19:02;2.60;99.90
25914;DHT22;13718;50.922;5.346;2023-03-03T02:21:29;2.80;99.90
25914;DHT22;13718;50.922;5.346;2023-03-03T02:26:30;3.00;99.90
25914;DHT22;13718;50.922;5.346;2023-03-03T02:28:57;2.60;99.90
25914;DHT22;13718;50.922;5.346;2023-03-03T02:31:24;2.60;99.90
25914;DHT22;13718;50.922;5.346;2023-03-03T02:33:50;2.60;99.90
25914;DHT22;13718;50.922;5.346;2023-03-03T02:36:20;2.70;99.90
25914;DHT22;13718;50.922;5.346;2023-03-03T02:38:58;3.00;99.90
25914;DHT22;13718;50.922;5.346;2023-03-03T02:46:16;3.10;99.90
25914;DHT22;13718;50.922;5.346;2023-03-03T02:48:42;3.00;99.90
25914;DHT22;13718;50.922;5.346;2023-03-03T02:51:08;2.90;99.90
25914;DHT22;13718;50.922;5.346;2023-03-03T02:53:33;3.00;99.90
25914;DHT22;13718;50.922;5.346;2023-03-03T02:55:59;2.70;99.90
25914;DHT22;13718;50.922;5.346;2023-03-03T02:58:24;2.40;99.90
25914;DHT22;13718;50.922;5.346;2023-03-03T03:00:50;2.20;99.90
25914;DHT22;13718;50.922;5.346;2023-03-03T03:03:16;2.40;99.90
25914;DHT22;13718;50.922;5.346;2023-03-03T03:05:41;2.20;99.90
25914;DHT22;13718;50.922;5.346;2023-03-03T03:08:06;2.10;99.90
25914;DHT22;13718;50.922;5.346;2023-03-03T03:10:32;2.40;99.90
25914;DHT22;13718;50.922;5.346;2023-03-03T03:12:57;2.40;99.90
25914;DHT22;13718;50.922;5.346;2023-03-03T03:15:23;2.30;99.90
25914;DHT22;13718;50.922;5.346;2023-03-03T03:17:48;2.60;99.90
25914;DHT22;13718;50.922;5.346;2023-03-03T03:20:14;2.60;99.90
25914;DHT22;13718;50.922;5.346;2023-03-03T03:22:40;2.50;99.90
25914;DHT22;13718;50.922;5.346;2023-03-03T03:25:05;2.50;99.90
25914;DHT22;13718;50.922;5.346;2023-03-03T03:27:31;2.70;99.90
25914;DHT22;13718;50.922;5.346;2023-03-03T03:29:57;2.80;99.90
25914;DHT22;13718;50.922;5.346;2023-03-03T03:32:22;2.80;99.90
25914;DHT22;13718;50.922;5.346;2023-03-03T03:34:47;2.80;99.90
25914;DHT22;13718;50.922;5.346;2023-03-03T03:37:13;2.50;99.90
25914;DHT22;13718;50.922;5.346;2023-03-03T03:39:39;2.40;99.90
25914;DHT22;13718;50.922;5.346;2023-03-03T03:42:05;2.30;99.90
25914;DHT22;13718;50.922;5.346;2023-03-03T03:44:30;2.10;99.90
25914;DHT22;13718;50.922;5.346;2023-03-03T03:46:56;2.50;99.90
25914;DHT22;13718;50.922;5.346;2023-03-03T03:49:21;2.60;99.90
25914;DHT22;13718;50.922;5.346;2023-03-03T03:51:47;2.40;99.90
25914;DHT22;13718;50.922;5.346;2023-03-03T03:54:12;2.10;99.90
25914;DHT22;13718;50.922;5.346;2023-03-03T03:56:38;2.10;99.90
25914;DHT22;13718;50.922;5.346;2023-03-03T03:59:06;2.40;99.90
25914;DHT22;13718;50.922;5.346;2023-03-03T04:01:32;2.30;99.90
25914;DHT22;13718;50.922;5.346;2023-03-03T04:03:57;2.20;99.90
25914;DHT22;13718;50.922;5.346;2023-03-03T04:06:23;1.90;99.90
25914;DHT22;13718;50.922;5.346;2023-03-03T04:08:48;1.80;99.90
25914;DHT22;13718;50.922;5.346;2023-03-03T04:11:14;2.00;99.90
25914;DHT22;13718;50.922;5.346;2023-03-03T04:13:40;1.90;99.90
25914;DHT22;13718;50.922;5.346;2023-03-03T04:16:05;2.20;99.90
25914;DHT22;13718;50.922;5.346;2023-03-03T04:18:31;2.40;99.90
25914;DHT22;13718;50.922;5.346;2023-03-03T04:20:56;2.40;99.90
25914;DHT22;13718;50.922;5.346;2023-03-03T04:23:22;2.20;99.90
25914;DHT22;13718;50.922;5.346;2023-03-03T04:25:47;2.20;99.90
25914;DHT22;13718;50.922;5.346;2023-03-03T04:28:14;2.00;99.90
25914;DHT22;13718;50.922;5.346;2023-03-03T04:30:39;1.80;99.90
25914;DHT22;13718;50.922;5.346;2023-03-03T04:33:05;1.70;99.90
25914;DHT22;13718;50.922;5.346;2023-03-03T04:35:30;1.70;99.90
25914;DHT22;13718;50.922;5.346;2023-03-03T04:37:56;1.70;99.90
25914;DHT22;13718;50.922;5.346;2023-03-03T04:40:21;1.70;99.90
25914;DHT22;13718;50.922;5.346;2023-03-03T04:42:47;2.00;99.90
25914;DHT22;13718;50.922;5.346;2023-03-03T04:45:12;1.80;99.90
25914;DHT22;13718;50.922;5.346;2023-03-03T04:47:38;2.00;99.90
25914;DHT22;13718;50.922;5.346;2023-03-03T04:50:03;2.20;99.90
25914;DHT22;13718;50.922;5.346;2023-03-03T04:52:29;2.30;99.90
25914;DHT22;13718;50.922;5.346;2023-03-03T04:54:55;2.40;99.90
25914;DHT22;13718;50.922;5.346;2023-03-03T04:57:20;2.40;99.90
25914;DHT22;13718;50.922;5.346;2023-03-03T04:59:45;2.50;99.90
25914;DHT22;13718;50.922;5.346;2023-03-03T05:02:11;2.60;99.90
25914;DHT22;13718;50.922;5.346;2023-03-03T05:04:37;2.40;99.90
25914;DHT22;13718;50.922;5.346;2023-03-03T05:07:03;2.30;99.90
25914;DHT22;13718;50.922;5.346;2023-03-03T05:09:28;2.10;99.90
25914;DHT22;13718;50.922;5.346;2023-03-03T05:11:54;2.40;99.90
25914;DHT22;13718;50.922;5.346;2023-03-03T05:14:19;2.30;99.90
25914;DHT22;13718;50.922;5.346;2023-03-03T05:16:45;2.30;99.90
25914;DHT22;13718;50.922;5.346;2023-03-03T05:19:10;2.10;99.90
25914;DHT22;13718;50.922;5.346;2023-03-03T05:21:36;1.90;99.90
25914;DHT22;13718;50.922;5.346;2023-03-03T05:24:01;1.70;99.90
25914;DHT22;13718;50.922;5.346;2023-03-03T05:26:27;1.90;99.90
25914;DHT22;13718;50.922;5.346;2023-03-03T05:28:52;1.80;99.90
25914;DHT22;13718;50.922;5.346;2023-03-03T05:31:18;1.70;99.90
25914;DHT22;13718;50.922;5.346;2023-03-03T05:33:43;1.70;99.90
25914;DHT22;13718;50.922;5.346;2023-03-03T05:36:08;1.80;99.90
25914;DHT22;13718;50.922;5.346;2023-03-03T05:38:34;1.60;99.90
25914;DHT22;13718;50.922;5.346;2023-03-03T05:40:59;1.80;99.90
25914;DHT22;13718;50.922;5.346;2023-03-03T05:43:25;1.90;99.90
25914;DHT22;13718;50.922;5.346;2023-03-03T05:45:56;2.10;99.90
25914;DHT22;13718;50.922;5.346;2023-03-03T05:48:22;2.40;99.90
25914;DHT22;13718;50.922;5.346;2023-03-03T05:50:48;2.20;99.90
25914;DHT22;13718;50.922;5.346;2023-03-03T05:53:13;2.40;99.90
25914;DHT22;13718;50.922;5.346;2023-03-03T05:55:39;2.50;99.90
25914;DHT22;13718;50.922;5.346;2023-03-03T05:58:05;2.40;99.90
25914;DHT22;13718;50.922;5.346;2023-03-03T06:00:30;2.00;99.90
25914;DHT22;13718;50.922;5.346;2023-03-03T06:02:56;1.70;99.90
25914;DHT22;13718;50.922;5.346;2023-03-03T06:05:21;1.60;99.90
25914;DHT22;13718;50.922;5.346;2023-03-03T06:07:47;1.60;99.90
25914;DHT22;13718;50.922;5.346;2023-03-03T06:10:13;1.60;99.90
25914;DHT22;13718;50.922;5.346;2023-03-03T06:12:39;1.60;99.90
25914;DHT22;13718;50.922;5.346;2023-03-03T06:15:06;1.50;99.90
25914;DHT22;13718;50.922;5.346;2023-03-03T06:17:32;1.50;99.90
25914;DHT22;13718;50.922;5.346;2023-03-03T06:19:57;1.90;99.90
25914;DHT22;13718;50.922;5.346;2023-03-03T06:22:23;1.90;99.90
25914;DHT22;13718;50.922;5.346;2023-03-03T06:24:48;1.80;99.90
25914;DHT22;13718;50.922;5.346;2023-03-03T06:27:14;1.80;99.90
25914;DHT22;13718;50.922;5.346;2023-03-03T06:29:39;1.70;99.90
25914;DHT22;13718;50.922;5.346;2023-03-03T06:32:05;1.70;99.90
25914;DHT22;13718;50.922;5.346;2023-03-03T06:34:30;1.70;99.90
25914;DHT22;13718;50.922;5.346;2023-03-03T06:36:56;1.70;99.90
25914;DHT22;13718;50.922;5.346;2023-03-03T06:39:21;1.80;99.90
25914;DHT22;13718;50.922;5.346;2023-03-03T06:41:47;1.80;99.90
25914;DHT22;13718;50.922;5.346;2023-03-03T06:44:12;1.80;99.90
25914;DHT22;13718;50.922;5.346;2023-03-03T06:46:38;1.70;99.90
25914;DHT22;13718;50.922;5.346;2023-03-03T06:49:03;1.60;99.90
25914;DHT22;13718;50.922;5.346;2023-03-03T06:51:33;1.60;99.90
25914;DHT22;13718;50.922;5.346;2023-03-03T06:54:05;1.60;99.90
25914;DHT22;13718;50.922;5.346;2023-03-03T06:56:35;1.60;99.90
25914;DHT22;13718;50.922;5.346;2023-03-03T06:59:00;1.70;99.90
25914;DHT22;13718;50.922;5.346;2023-03-03T07:01:29;1.80;99.90
25914;DHT22;13718;50.922;5.346;2023-03-03T07:03:57;1.70;99.90
25914;DHT22;13718;50.922;5.346;2023-03-03T07:06:24;1.70;99.90
25914;DHT22;13718;50.922;5.346;2023-03-03T07:08:51;1.70;99.90
25914;DHT22;13718;50.922;5.346;2023-03-03T07:11:18;1.80;99.90
25914;DHT22;13718;50.922;5.346;2023-03-03T07:13:51;1.70;99.90
25914;DHT22;13718;50.922;5.346;2023-03-03T07:16:17;1.70;99.90
25914;DHT22;13718;50.922;5.346;2023-03-03T07:21:19;2.00;99.90
25914;DHT22;13718;50.922;5.346;2023-03-03T07:23:46;2.10;99.90
25914;DHT22;13718;50.922;5.346;2023-03-03T07:26:16;2.00;99.90
25914;DHT22;13718;50.922;5.346;2023-03-03T07:28:43;1.90;99.90
25914;DHT22;13718;50.922;5.346;2023-03-03T07:33:50;2.00;99.90
25914;DHT22;13718;50.922;5.346;2023-03-03T07:36:21;1.70;99.90
25914;DHT22;13718;50.922;5.346;2023-03-03T07:38:58;1.70;99.90
25914;DHT22;13718;50.922;5.346;2023-03-03T07:41:25;1.60;99.90
25914;DHT22;13718;50.922;5.346;2023-03-03T07:44:11;1.60;99.90
25914;DHT22;13718;50.922;5.346;2023-03-03T07:46:43;1.60;99.90
25914;DHT22;13718;50.922;5.346;2023-03-03T07:51:40;1.80;99.90
25914;DHT22;13718;50.922;5.346;2023-03-03T07:56:54;1.70;99.90
25914;DHT22;13718;50.922;5.346;2023-03-03T07:59:21;1.70;99.90
25914;DHT22;13718;50.922;5.346;2023-03-03T08:01:49;1.70;99.90
25914;DHT22;13718;50.922;5.346;2023-03-03T08:04:38;1.80;99.90
25914;DHT22;13718;50.922;5.346;2023-03-03T08:07:01;1.70;99.90
25914;DHT22;13718;50.922;5.346;2023-03-03T08:09:35;1.70;99.90
25914;DHT22;13718;50.922;5.346;2023-03-03T08:14:45;1.80;99.90
25914;DHT22;13718;50.922;5.346;2023-03-03T08:17:22;1.90;99.90
25914;DHT22;13718;50.922;5.346;2023-03-03T08:19:48;2.00;99.90
25914;DHT22;13718;50.922;5.346;2023-03-03T08:22:16;2.30;99.90
25914;DHT22;13718;50.922;5.346;2023-03-03T08:24:42;2.30;99.90
25914;DHT22;13718;50.922;5.346;2023-03-03T08:27:07;2.60;99.90
25914;DHT22;13718;50.922;5.346;2023-03-03T08:29:33;2.90;99.90
25914;DHT22;13718;50.922;5.346;2023-03-03T08:31:58;2.80;99.90
25914;DHT22;13718;50.922;5.346;2023-03-03T08:34:23;3.00;99.90
25914;DHT22;13718;50.922;5.346;2023-03-03T08:36:49;3.00;99.90
25914;DHT22;13718;50.922;5.346;2023-03-03T08:39:15;2.80;99.90
25914;DHT22;13718;50.922;5.346;2023-03-03T08:41:40;2.60;99.90
25914;DHT22;13718;50.922;5.346;2023-03-03T08:44:08;2.50;99.90
25914;DHT22;13718;50.922;5.346;2023-03-03T08:46:33;2.70;99.90
25914;DHT22;13718;50.922;5.346;2023-03-03T08:48:59;2.70;99.90
25914;DHT22;13718;50.922;5.346;2023-03-03T08:51:24;3.10;99.90
25914;DHT22;13718;50.922;5.346;2023-03-03T08:53:50;3.30;99.90
25914;DHT22;13718;50.922;5.346;2023-03-03T08:56:16;3.40;99.90
25914;DHT22;13718;50.922;5.346;2023-03-03T08:58:41;3.40;99.90
25914;DHT22;13718;50.922;5.346;2023-03-03T09:01:15;3.40;99.90
25914;DHT22;13718;50.922;5.346;2023-03-03T09:03:41;3.30;99.90
25914;DHT22;13718;50.922;5.346;2023-03-03T09:06:07;3.50;99.90
25914;DHT22;13718;50.922;5.346;2023-03-03T09:08:32;3.40;99.90
25914;DHT22;13718;50.922;5.346;2023-03-03T09:10:58;3.30;99.90
25914;DHT22;13718;50.922;5.346;2023-03-03T09:13:24;3.20;99.90
25914;DHT22;13718;50.922;5.346;2023-03-03T09:15:50;3.10;99.90
25914;DHT22;13718;50.922;5.346;2023-03-03T09:18:17;3.40;99.90
25914;DHT22;13718;50.922;5.346;2023-03-03T09:20:44;3.20;99.90
25914;DHT22;13718;50.922;5.346;2023-03-03T09:25:55;2.80;99.90
25914;DHT22;13718;50.922;5.346;2023-03-03T09:28:23;2.80;99.90
25914;DHT22;13718;50.922;5.346;2023-03-03T09:30:49;2.80;99.90
25914;DHT22;13718;50.922;5.346;2023-03-03T09:33:30;2.90;99.90
25914;DHT22;13718;50.922;5.346;2023-03-03T09:36:22;2.80;99.90
25914;DHT22;13718;50.922;5.346;2023-03-03T09:38:49;2.80;99.90
25914;DHT22;13718;50.922;5.346;2023-03-03T09:41:23;2.80;99.90
25914;DHT22;13718;50.922;5.346;2023-03-03T09:46:41;2.90;99.90
25914;DHT22;13718;50.922;5.346;2023-03-03T09:56:45;3.30;99.90
25914;DHT22;13718;50.922;5.346;2023-03-03T10:01:58;3.30;99.90
25914;DHT22;13718;50.922;5.346;2023-03-03T10:04:33;3.20;99.90
25914;DHT22;13718;50.922;5.346;2023-03-03T10:12:19;3.10;99.90
25914;DHT22;13718;50.922;5.346;2023-03-03T10:14:52;3.40;99.90
25914;DHT22;13718;50.922;5.346;2023-03-03T10:19:52;3.60;99.90
25914;DHT22;13718;50.922;5.346;2023-03-03T10:25:09;4.10;99.90
25914;DHT22;13718;50.922;5.346;2023-03-03T10:32:43;4.30;99.90
25914;DHT22;13718;50.922;5.346;2023-03-03T10:43:01;4.60;99.90
25914;DHT22;13718;50.922;5.346;2023-03-03T10:50:52;4.70;99.90
25914;DHT22;13718;50.922;5.346;2023-03-03T10:53:21;4.60;99.90
25914;DHT22;13718;50.922;5.346;2023-03-03T10:55:56;4.70;99.90
25914;DHT22;13718;50.922;5.346;2023-03-03T11:01:08;4.90;99.90
25914;DHT22;13718;50.922;5.346;2023-03-03T11:08:35;5.40;99.90
25914;DHT22;13718;50.922;5.346;2023-03-03T11:13:40;5.20;99.90
25914;DHT22;13718;50.922;5.346;2023-03-03T11:18:36;5.00;99.90
25914;DHT22;13718;50.922;5.346;2023-03-03T11:21:12;5.10;99.90
25914;DHT22;13718;50.922;5.346;2023-03-03T11:34:49;5.10;99.90
25914;DHT22;13718;50.922;5.346;2023-03-03T11:40:09;5.00;99.90
25914;DHT22;13718;50.922;5.346;2023-03-03T11:47:36;6.10;99.90
25914;DHT22;13718;50.922;5.346;2023-03-03T11:52:49;5.90;99.90
25914;DHT22;13718;50.922;5.346;2023-03-03T11:55:22;5.60;99.90
25914;DHT22;13718;50.922;5.346;2023-03-03T11:57:57;5.40;99.90
25914;DHT22;13718;50.922;5.346;2023-03-03T12:00:41;5.50;99.90
25914;DHT22;13718;50.922;5.346;2023-03-03T12:03:13;6.00;99.90
25914;DHT22;13718;50.922;5.346;2023-03-03T12:10:48;6.30;99.90
25914;DHT22;13718;50.922;5.346;2023-03-03T12:15:56;6.70;99.90
25914;DHT22;13718;50.922;5.346;2023-03-03T12:18:27;6.80;99.90
25914;DHT22;13718;50.922;5.346;2023-03-03T12:21:02;6.90;99.90
25914;DHT22;13718;50.922;5.346;2023-03-03T12:29:04;5.90;99.90
25914;DHT22;13718;50.922;5.346;2023-03-03T12:34:26;6.20;99.90
25914;DHT22;13718;50.922;5.346;2023-03-03T12:42:22;6.00;99.90
25914;DHT22;13718;50.922;5.346;2023-03-03T12:45:01;5.90;99.90
25914;DHT22;13718;50.922;5.346;2023-03-03T12:47:48;6.10;99.90
25914;DHT22;13718;50.922;5.346;2023-03-03T12:52:45;6.40;99.90
25914;DHT22;13718;50.922;5.346;2023-03-03T12:55:31;6.60;99.90
25914;DHT22;13718;50.922;5.346;2023-03-03T13:03:20;6.60;99.90
25914;DHT22;13718;50.922;5.346;2023-03-03T13:06:03;6.50;99.90
25914;DHT22;13718;50.922;5.346;2023-03-03T13:11:11;6.70;99.90
25914;DHT22;13718;50.922;5.346;2023-03-03T13:13:51;6.80;99.90
25914;DHT22;13718;50.922;5.346;2023-03-03T13:16:23;7.10;99.90
25914;DHT22;13718;50.922;5.346;2023-03-03T13:21:31;7.00;99.90
25914;DHT22;13718;50.922;5.346;2023-03-03T13:31:19;7.50;99.90
25914;DHT22;13718;50.922;5.346;2023-03-03T13:36:16;7.30;99.90
25914;DHT22;13718;50.922;5.346;2023-03-03T13:38:46;7.10;99.90
25914;DHT22;13718;50.922;5.346;2023-03-03T13:43:58;7.40;99.90
25914;DHT22;13718;50.922;5.346;2023-03-03T13:46:32;7.70;99.90
25914;DHT22;13718;50.922;5.346;2023-03-03T13:52:01;7.80;99.90
25914;DHT22;13718;50.922;5.346;2023-03-03T14:10:24;6.60;99.90
25914;DHT22;13718;50.922;5.346;2023-03-03T14:12:55;6.40;99.90
25914;DHT22;13718;50.922;5.346;2023-03-03T14:20:38;6.30;99.90
25914;DHT22;13718;50.922;5.346;2023-03-03T14:23:49;6.50;99.90
25914;DHT22;13718;50.922;5.346;2023-03-03T14:28:26;6.90;99.90
25914;DHT22;13718;50.922;5.346;2023-03-03T14:30:53;6.60;99.90
25914;DHT22;13718;50.922;5.346;2023-03-03T14:33:20;6.30;99.90
25914;DHT22;13718;50.922;5.346;2023-03-03T14:38:40;6.20;99.90
25914;DHT22;13718;50.922;5.346;2023-03-03T14:43:36;6.00;99.90
25914;DHT22;13718;50.922;5.346;2023-03-03T14:46:47;6.30;99.90
25914;DHT22;13718;50.922;5.346;2023-03-03T14:48:49;6.50;99.90
25914;DHT22;13718;50.922;5.346;2023-03-03T14:53:46;6.90;99.90
25914;DHT22;13718;50.922;5.346;2023-03-03T14:56:26;6.80;99.90
25914;DHT22;13718;50.922;5.346;2023-03-03T14:58:52;6.90;99.90
25914;DHT22;13718;50.922;5.346;2023-03-03T15:01:34;6.90;99.90
25914;DHT22;13718;50.922;5.346;2023-03-03T15:04:22;6.70;99.90
25914;DHT22;13718;50.922;5.346;2023-03-03T15:06:49;7.00;99.90
25914;DHT22;13718;50.922;5.346;2023-03-03T15:09:19;6.70;99.90
25914;DHT22;13718;50.922;5.346;2023-03-03T15:11:45;6.50;99.90
25914;DHT22;13718;50.922;5.346;2023-03-03T15:14:14;6.50;99.90
25914;DHT22;13718;50.922;5.346;2023-03-03T15:16:40;6.60;99.90
25914;DHT22;13718;50.922;5.346;2023-03-03T15:19:13;6.80;99.90
25914;DHT22;13718;50.922;5.346;2023-03-03T15:27:17;7.20;99.90
25914;DHT22;13718;50.922;5.346;2023-03-03T15:29:51;7.30;99.90
25914;DHT22;13718;50.922;5.346;2023-03-03T15:35:06;7.30;99.90
25914;DHT22;13718;50.922;5.346;2023-03-03T15:42:41;7.00;99.90
25914;DHT22;13718;50.922;5.346;2023-03-03T15:55:46;6.80;99.90
25914;DHT22;13718;50.922;5.346;2023-03-03T16:03:45;7.30;99.90
25914;DHT22;13718;50.922;5.346;2023-03-03T16:06:21;7.00;99.90
25914;DHT22;13718;50.922;5.346;2023-03-03T16:08:52;6.90;99.90
25914;DHT22;13718;50.922;5.346;2023-03-03T16:16:55;7.20;99.90
25914;DHT22;13718;50.922;5.346;2023-03-03T16:27:04;6.90;99.90
25914;DHT22;13718;50.922;5.346;2023-03-03T16:32:08;7.10;99.90
25914;DHT22;13718;50.922;5.346;2023-03-03T16:37:04;6.70;99.90
25914;DHT22;13718;50.922;5.346;2023-03-03T16:46:47;6.60;99.90
25914;DHT22;13718;50.922;5.346;2023-03-03T16:51:44;6.60;99.90
25914;DHT22;13718;50.922;5.346;2023-03-03T16:57:08;6.50;99.90
25914;DHT22;13718;50.922;5.346;2023-03-03T16:59:41;6.70;99.90
25914;DHT22;13718;50.922;5.346;2023-03-03T17:02:19;6.70;99.90
25914;DHT22;13718;50.922;5.346;2023-03-03T17:04:54;6.40;99.90
25914;DHT22;13718;50.922;5.346;2023-03-03T17:10:40;6.00;99.90
25914;DHT22;13718;50.922;5.346;2023-03-03T17:15:48;5.90;99.90
25914;DHT22;13718;50.922;5.346;2023-03-03T17:17:58;5.80;99.90
25914;DHT22;13718;50.922;5.346;2023-03-03T17:23:06;5.60;99.90
25914;DHT22;13718;50.922;5.346;2023-03-03T17:25:36;5.80;99.90
25914;DHT22;13718;50.922;5.346;2023-03-03T17:33:13;5.70;99.90
25914;DHT22;13718;50.922;5.346;2023-03-03T17:38:30;5.60;99.90
25914;DHT22;13718;50.922;5.346;2023-03-03T17:46:12;5.40;99.90
25914;DHT22;13718;50.922;5.346;2023-03-03T18:04:30;5.50;99.90
25914;DHT22;13718;50.922;5.346;2023-03-03T18:07:12;5.60;99.90
25914;DHT22;13718;50.922;5.346;2023-03-03T18:21:57;5.10;99.90
25914;DHT22;13718;50.922;5.346;2023-03-03T18:24:33;5.00;99.90
25914;DHT22;13718;50.922;5.346;2023-03-03T18:27:26;4.90;99.90
25914;DHT22;13718;50.922;5.346;2023-03-03T18:32:40;4.80;99.90
25914;DHT22;13718;50.922;5.346;2023-03-03T18:37:47;4.70;99.90
25914;DHT22;13718;50.922;5.346;2023-03-03T18:42:57;4.80;99.90
25914;DHT22;13718;50.922;5.346;2023-03-03T18:47:58;4.50;99.90
25914;DHT22;13718;50.922;5.346;2023-03-03T19:00:41;4.30;99.90
25914;DHT22;13718;50.922;5.346;2023-03-03T19:03:17;4.30;99.90
25914;DHT22;13718;50.922;5.346;2023-03-03T19:05:48;4.40;99.90
25914;DHT22;13718;50.922;5.346;2023-03-03T19:08:24;4.30;99.90
25914;DHT22;13718;50.922;5.346;2023-03-03T19:11:00;4.20;99.90
25914;DHT22;13718;50.922;5.346;2023-03-03T19:15:58;4.10;99.90
25914;DHT22;13718;50.922;5.346;2023-03-03T19:18:32;4.00;99.90
25914;DHT22;13718;50.922;5.346;2023-03-03T19:21:05;4.00;99.90
25914;DHT22;13718;50.922;5.346;2023-03-03T19:28:42;4.10;99.90
25914;DHT22;13718;50.922;5.346;2023-03-03T19:31:25;4.20;99.90
25914;DHT22;13718;50.922;5.346;2023-03-03T19:33:54;4.10;99.90
25914;DHT22;13718;50.922;5.346;2023-03-03T19:39:07;4.30;99.90
25914;DHT22;13718;50.922;5.346;2023-03-03T19:46:53;4.00;99.90
25914;DHT22;13718;50.922;5.346;2023-03-03T19:52:02;3.90;99.90
25914;DHT22;13718;50.922;5.346;2023-03-03T19:57:05;4.00;99.90
25914;DHT22;13718;50.922;5.346;2023-03-03T19:59:37;3.90;99.90
25914;DHT22;13718;50.922;5.346;2023-03-03T20:15:25;3.90;99.90
25914;DHT22;13718;50.922;5.346;2023-03-03T20:25:45;3.90;99.90
25914;DHT22;13718;50.922;5.346;2023-03-03T20:33:41;4.00;99.90
25914;DHT22;13718;50.922;5.346;2023-03-03T20:38:56;4.00;99.90
25914;DHT22;13718;50.922;5.346;2023-03-03T20:51:53;4.40;99.90
25914;DHT22;13718;50.922;5.346;2023-03-03T21:01:56;4.30;99.90
25914;DHT22;13718;50.922;5.346;2023-03-03T21:04:25;4.40;99.90
25914;DHT22;13718;50.922;5.346;2023-03-03T21:06:51;4.30;99.90
25914;DHT22;13718;50.922;5.346;2023-03-03T21:09:38;4.30;99.90
25914;DHT22;13718;50.922;5.346;2023-03-03T21:12:10;4.20;99.90
25914;DHT22;13718;50.922;5.346;2023-03-03T21:14:36;4.20;99.90
25914;DHT22;13718;50.922;5.346;2023-03-03T21:19:46;4.30;99.90
25914;DHT22;13718;50.922;5.346;2023-03-03T21:22:11;4.30;99.90
25914;DHT22;13718;50.922;5.346;2023-03-03T21:24:53;4.20;99.90
25914;DHT22;13718;50.922;5.346;2023-03-03T21:27:27;4.20;99.90
25914;DHT22;13718;50.922;5.346;2023-03-03T21:32:35;4.20;99.90
25914;DHT22;13718;50.922;5.346;2023-03-03T21:35:05;4.20;99.90
25914;DHT22;13718;50.922;5.346;2023-03-03T21:40:27;4.40;99.90
25914;DHT22;13718;50.922;5.346;2023-03-03T21:42:57;4.30;99.90
25914;DHT22;13718;50.922;5.346;2023-03-03T21:45:23;4.30;99.90
25914;DHT22;13718;50.922;5.346;2023-03-03T21:47:49;4.30;99.90
25914;DHT22;13718;50.922;5.346;2023-03-03T21:50:15;4.30;99.90
25914;DHT22;13718;50.922;5.346;2023-03-03T21:52:41;4.30;99.90
25914;DHT22;13718;50.922;5.346;2023-03-03T21:55:06;4.30;99.90
25914;DHT22;13718;50.922;5.346;2023-03-03T21:57:32;4.30;99.90
25914;DHT22;13718;50.922;5.346;2023-03-03T21:59:59;4.30;99.90
25914;DHT22;13718;50.922;5.346;2023-03-03T22:02:25;4.30;99.90
25914;DHT22;13718;50.922;5.346;2023-03-03T22:04:50;4.30;99.90
25914;DHT22;13718;50.922;5.346;2023-03-03T22:07:16;4.30;99.90
25914;DHT22;13718;50.922;5.346;2023-03-03T22:09:41;4.40;99.90
25914;DHT22;13718;50.922;5.346;2023-03-03T22:12:07;4.50;99.90
25914;DHT22;13718;50.922;5.346;2023-03-03T22:14:32;4.60;99.90
25914;DHT22;13718;50.922;5.346;2023-03-03T22:16:58;4.50;99.90
25914;DHT22;13718;50.922;5.346;2023-03-03T22:19:24;4.50;99.90
25914;DHT22;13718;50.922;5.346;2023-03-03T22:21:49;4.40;99.90
25914;DHT22;13718;50.922;5.346;2023-03-03T22:24:15;4.40;99.90
25914;DHT22;13718;50.922;5.346;2023-03-03T22:26:40;4.40;99.90
25914;DHT22;13718;50.922;5.346;2023-03-03T22:29:06;4.40;99.90